sensor_id;sensor_type;location;lat;lon;timestamp;pressure;altitude;pressure_sealevel;temperature;humidity
76070;BME280;64768;51.738;5.852;2022-11-18T00:02:27;99549.47;;;7.74;94.39
76070;BME280;64768;51.738;5.852;2022-11-18T00:04:56;99560.66;;;7.76;94.43
76070;BME280;64768;51.738;5.852;2022-11-18T00:07:25;99564.91;;;7.77;94.19
76070;BME280;64768;51.738;5.852;2022-11-18T00:09:54;99559.19;;;7.72;94.40
76070;BME280;64768;51.738;5.852;2022-11-18T00:12:23;99567.25;;;7.75;94.33
76070;BME280;64768;51.738;5.852;2022-11-18T00:15:07;99574.56;;;7.78;94.63
76070;BME280;64768;51.738;5.852;2022-11-18T00:17:38;99566.16;;;7.73;94.10
76070;BME280;64768;51.738;5.852;2022-11-18T00:20:07;99576.63;;;7.71;94.28
76070;BME280;64768;51.738;5.852;2022-11-18T00:22:36;99579.75;;;7.69;94.39
76070;BME280;64768;51.738;5.852;2022-11-18T00:25:05;99585.88;;;7.73;94.49
76070;BME280;64768;51.738;5.852;2022-11-18T00:27:35;99583.72;;;7.65;94.67
76070;BME280;64768;51.738;5.852;2022-11-18T00:30:09;99586.03;;;7.63;94.94
76070;BME280;64768;51.738;5.852;2022-11-18T00:32:40;99602.50;;;7.75;94.71
76070;BME280;64768;51.738;5.852;2022-11-18T00:35:12;99594.50;;;7.68;94.23
76070;BME280;64768;51.738;5.852;2022-11-18T00:37:41;99606.03;;;7.72;94.53
76070;BME280;64768;51.738;5.852;2022-11-18T00:40:10;99608.88;;;7.65;94.42
76070;BME280;64768;51.738;5.852;2022-11-18T00:42:42;99610.34;;;7.70;94.46
76070;BME280;64768;51.738;5.852;2022-11-18T00:45:20;99611.59;;;7.62;94.36
76070;BME280;64768;51.738;5.852;2022-11-18T00:47:49;99613.13;;;7.63;94.87
76070;BME280;64768;51.738;5.852;2022-11-18T00:50:18;99611.25;;;7.60;94.75
76070;BME280;64768;51.738;5.852;2022-11-18T00:52:52;99621.22;;;7.66;94.72
76070;BME280;64768;51.738;5.852;2022-11-18T00:55:20;99628.97;;;7.64;94.97
76070;BME280;64768;51.738;5.852;2022-11-18T00:57:49;99620.41;;;7.69;95.08
76070;BME280;64768;51.738;5.852;2022-11-18T01:00:24;99630.56;;;7.62;94.86
76070;BME280;64768;51.738;5.852;2022-11-18T01:02:53;99627.28;;;7.74;94.41
76070;BME280;64768;51.738;5.852;2022-11-18T01:05:30;99624.25;;;7.72;94.66
76070;BME280;64768;51.738;5.852;2022-11-18T01:10:55;99625.72;;;7.76;94.47
76070;BME280;64768;51.738;5.852;2022-11-18T01:13:53;99645.34;;;7.84;94.27
76070;BME280;64768;51.738;5.852;2022-11-18T01:16:45;99646.88;;;7.85;94.33
76070;BME280;64768;51.738;5.852;2022-11-18T01:19:28;99650.72;;;7.88;94.25
76070;BME280;64768;51.738;5.852;2022-11-18T01:22:03;99665.03;;;7.88;94.05
76070;BME280;64768;51.738;5.852;2022-11-18T01:24:35;99654.94;;;7.89;94.30
76070;BME280;64768;51.738;5.852;2022-11-18T01:27:09;99650.72;;;7.88;94.31
76070;BME280;64768;51.738;5.852;2022-11-18T01:29:55;99657.31;;;7.87;94.12
76070;BME280;64768;51.738;5.852;2022-11-18T01:32:36;99658.72;;;7.95;93.85
76070;BME280;64768;51.738;5.852;2022-11-18T01:35:20;99654.53;;;7.90;94.03
76070;BME280;64768;51.738;5.852;2022-11-18T01:37:53;99663.72;;;7.96;94.34
76070;BME280;64768;51.738;5.852;2022-11-18T01:40:31;99681.94;;;7.96;94.29
76070;BME280;64768;51.738;5.852;2022-11-18T01:43:07;99664.56;;;7.93;94.05
76070;BME280;64768;51.738;5.852;2022-11-18T01:45:55;99669.63;;;7.91;94.47
76070;BME280;64768;51.738;5.852;2022-11-18T01:48:32;99678.53;;;7.92;94.24
76070;BME280;64768;51.738;5.852;2022-11-18T01:51:11;99673.88;;;7.92;94.33
76070;BME280;64768;51.738;5.852;2022-11-18T01:53:52;99673.16;;;7.88;94.50
76070;BME280;64768;51.738;5.852;2022-11-18T01:56:35;99685.78;;;7.98;94.14
76070;BME280;64768;51.738;5.852;2022-11-18T01:59:21;99690.38;;;8.01;93.84
76070;BME280;64768;51.738;5.852;2022-11-18T02:01:55;99687.69;;;8.01;94.01
76070;BME280;64768;51.738;5.852;2022-11-18T02:04:41;99680.13;;;7.89;94.18
76070;BME280;64768;51.738;5.852;2022-11-18T02:07:18;99678.09;;;7.93;94.30
76070;BME280;64768;51.738;5.852;2022-11-18T02:09:59;99684.63;;;7.99;94.13
76070;BME280;64768;51.738;5.852;2022-11-18T02:12:36;99700.41;;;8.04;94.09
76070;BME280;64768;51.738;5.852;2022-11-18T02:15:20;99698.88;;;8.03;94.05
76070;BME280;64768;51.738;5.852;2022-11-18T02:18:03;99686.59;;;7.95;94.42
76070;BME280;64768;51.738;5.852;2022-11-18T02:20:45;99697.34;;;8.02;94.46
76070;BME280;64768;51.738;5.852;2022-11-18T02:29:51;99697.81;;;7.97;94.74
76070;BME280;64768;51.738;5.852;2022-11-18T02:32:52;99716.63;;;8.08;94.63
76070;BME280;64768;51.738;5.852;2022-11-18T02:35:37;99723.91;;;8.11;94.63
76070;BME280;64768;51.738;5.852;2022-11-18T02:38:10;99705.47;;;8.02;94.46
76070;BME280;64768;51.738;5.852;2022-11-18T02:40:51;99709.25;;;8.08;94.72
76070;BME280;64768;51.738;5.852;2022-11-18T02:43:25;99717.78;;;8.07;95.08
76070;BME280;64768;51.738;5.852;2022-11-18T02:46:01;99713.84;;;8.11;94.51
76070;BME280;64768;51.738;5.852;2022-11-18T02:48:49;99720.00;;;8.16;94.57
76070;BME280;64768;51.738;5.852;2022-11-18T02:51:25;99720.00;;;8.16;94.97
76070;BME280;64768;51.738;5.852;2022-11-18T02:54:19;99714.56;;;8.16;94.65
76070;BME280;64768;51.738;5.852;2022-11-18T02:57:00;99713.81;;;8.15;95.00
76070;BME280;64768;51.738;5.852;2022-11-18T02:59:49;99721.53;;;8.17;94.83
76070;BME280;64768;51.738;5.852;2022-11-18T03:02:21;99711.84;;;8.16;94.66
76070;BME280;64768;51.738;5.852;2022-11-18T03:04:53;99721.94;;;8.15;94.96
76070;BME280;64768;51.738;5.852;2022-11-18T03:07:31;99741.91;;;8.25;95.00
76070;BME280;64768;51.738;5.852;2022-11-18T03:10:23;99730.31;;;8.24;95.12
76070;BME280;64768;51.738;5.852;2022-11-18T03:13:06;99737.25;;;8.25;94.83
76070;BME280;64768;51.738;5.852;2022-11-18T03:15:47;99735.78;;;8.21;95.12
76070;BME280;64768;51.738;5.852;2022-11-18T03:18:30;99744.22;;;8.26;94.86
76070;BME280;64768;51.738;5.852;2022-11-18T03:21:21;99743.81;;;8.28;95.27
76070;BME280;64768;51.738;5.852;2022-11-18T03:24:35;99739.69;;;8.20;95.32
76070;BME280;64768;51.738;5.852;2022-11-18T03:27:32;99744.63;;;8.25;95.00
76070;BME280;64768;51.738;5.852;2022-11-18T03:33:05;99763.09;;;8.33;95.19
76070;BME280;64768;51.738;5.852;2022-11-18T03:35:55;99764.72;;;8.31;94.90
76070;BME280;64768;51.738;5.852;2022-11-18T03:38:48;99755.47;;;8.25;95.41
76070;BME280;64768;51.738;5.852;2022-11-18T03:41:36;99775.53;;;8.34;95.21
76070;BME280;64768;51.738;5.852;2022-11-18T03:44:11;99769.38;;;8.30;94.92
76070;BME280;64768;51.738;5.852;2022-11-18T03:46:52;99779.34;;;8.37;95.16
76070;BME280;64768;51.738;5.852;2022-11-18T03:49:28;99778.66;;;8.29;95.56
76070;BME280;64768;51.738;5.852;2022-11-18T03:52:09;99787.09;;;8.38;94.76
76070;BME280;64768;51.738;5.852;2022-11-18T03:54:48;99791.03;;;8.34;94.81
76070;BME280;64768;51.738;5.852;2022-11-18T03:57:37;99789.47;;;8.33;95.59
76070;BME280;64768;51.738;5.852;2022-11-18T04:00:42;99785.59;;;8.34;94.76
76070;BME280;64768;51.738;5.852;2022-11-18T04:03:45;99789.84;;;8.35;95.12
76070;BME280;64768;51.738;5.852;2022-11-18T04:06:47;99790.25;;;8.33;95.13
76070;BME280;64768;51.738;5.852;2022-11-18T04:13:11;99798.00;;;8.35;95.06
76070;BME280;64768;51.738;5.852;2022-11-18T04:16:00;99803.78;;;8.37;95.18
76070;BME280;64768;51.738;5.852;2022-11-18T04:18:58;99792.22;;;8.29;95.26
76070;BME280;64768;51.738;5.852;2022-11-18T04:21:43;99801.09;;;8.33;95.21
76070;BME280;64768;51.738;5.852;2022-11-18T04:28:00;99812.19;;;8.42;95.26
76070;BME280;64768;51.738;5.852;2022-11-18T04:37:23;99833.13;;;8.42;95.20
76070;BME280;64768;51.738;5.852;2022-11-18T04:40:29;99828.94;;;8.37;94.81
76070;BME280;64768;51.738;5.852;2022-11-18T04:43:18;99834.78;;;8.36;95.07
76070;BME280;64768;51.738;5.852;2022-11-18T04:49:40;99848.66;;;8.41;95.61
76070;BME280;64768;51.738;5.852;2022-11-18T04:52:19;99840.66;;;8.31;95.19
76070;BME280;64768;51.738;5.852;2022-11-18T04:55:06;99852.97;;;8.39;95.16
76070;BME280;64768;51.738;5.852;2022-11-18T04:57:57;99851.44;;;8.38;95.44
76070;BME280;64768;51.738;5.852;2022-11-18T05:04:15;99875.38;;;8.43;95.18
76070;BME280;64768;51.738;5.852;2022-11-18T05:06:59;99873.88;;;8.38;95.47
76070;BME280;64768;51.738;5.852;2022-11-18T05:09:57;99877.38;;;8.39;95.04
76070;BME280;64768;51.738;5.852;2022-11-18T05:12:37;99875.06;;;8.37;94.98
76070;BME280;64768;51.738;5.852;2022-11-18T05:15:20;99875.84;;;8.38;95.26
76070;BME280;64768;51.738;5.852;2022-11-18T05:18:00;99877.78;;;8.37;95.19
76070;BME280;64768;51.738;5.852;2022-11-18T05:20:49;99892.41;;;8.43;94.86
76070;BME280;64768;51.738;5.852;2022-11-18T05:23:21;99874.31;;;8.37;95.31
76070;BME280;64768;51.738;5.852;2022-11-18T05:26:09;99886.34;;;8.36;95.24
76070;BME280;64768;51.738;5.852;2022-11-18T05:28:57;99887.88;;;8.37;95.06
76070;BME280;64768;51.738;5.852;2022-11-18T05:31:47;99904.44;;;8.42;95.62
76070;BME280;64768;51.738;5.852;2022-11-18T05:34:34;99884.06;;;8.31;95.00
76070;BME280;64768;51.738;5.852;2022-11-18T05:37:11;99890.22;;;8.35;95.40
76070;BME280;64768;51.738;5.852;2022-11-18T05:47:13;99913.00;;;8.41;95.11
76070;BME280;64768;51.738;5.852;2022-11-18T05:50:05;99908.44;;;8.34;95.24
76070;BME280;64768;51.738;5.852;2022-11-18T05:52:59;99907.69;;;8.34;95.19
76070;BME280;64768;51.738;5.852;2022-11-18T05:58:49;99920.44;;;8.37;95.28
76070;BME280;64768;51.738;5.852;2022-11-18T06:01:53;99920.44;;;8.33;95.29
76070;BME280;64768;51.738;5.852;2022-11-18T06:05:14;99915.88;;;8.27;95.32
76070;BME280;64768;51.738;5.852;2022-11-18T06:27:44;99947.25;;;7.94;95.70
76070;BME280;64768;51.738;5.852;2022-11-18T06:30:14;99962.34;;;7.95;95.71
76070;BME280;64768;51.738;5.852;2022-11-18T06:32:43;99951.97;;;7.90;95.50
76070;BME280;64768;51.738;5.852;2022-11-18T06:35:11;99964.28;;;7.94;95.44
76070;BME280;64768;51.738;5.852;2022-11-18T06:37:40;99965.16;;;7.88;95.68
76070;BME280;64768;51.738;5.852;2022-11-18T06:40:10;99966.78;;;7.78;95.81
76070;BME280;64768;51.738;5.852;2022-11-18T06:45:57;99987.25;;;7.86;95.77
76070;BME280;64768;51.738;5.852;2022-11-18T06:48:39;99984.97;;;7.81;95.72
76070;BME280;64768;51.738;5.852;2022-11-18T06:51:08;99994.72;;;7.75;95.68
76070;BME280;64768;51.738;5.852;2022-11-18T06:53:36;99999.00;;;7.72;95.89
76070;BME280;64768;51.738;5.852;2022-11-18T06:56:08;100004.44;;;7.69;95.92
76070;BME280;64768;51.738;5.852;2022-11-18T06:58:38;100003.38;;;7.59;95.74
76070;BME280;64768;51.738;5.852;2022-11-18T07:01:14;100009.16;;;7.61;95.95
76070;BME280;64768;51.738;5.852;2022-11-18T07:03:44;100014.56;;;7.61;95.89
76070;BME280;64768;51.738;5.852;2022-11-18T07:06:15;100020.75;;;7.62;96.09
76070;BME280;64768;51.738;5.852;2022-11-18T07:08:44;100024.28;;;7.59;95.50
76070;BME280;64768;51.738;5.852;2022-11-18T07:11:15;100030.84;;;7.61;95.75
76070;BME280;64768;51.738;5.852;2022-11-18T07:13:44;100025.13;;;7.52;95.70
76070;BME280;64768;51.738;5.852;2022-11-18T07:16:17;100026.66;;;7.53;95.98
76070;BME280;64768;51.738;5.852;2022-11-18T07:18:47;100030.13;;;7.53;95.69
76070;BME280;64768;51.738;5.852;2022-11-18T07:21:16;100043.28;;;7.55;95.46
76070;BME280;64768;51.738;5.852;2022-11-18T07:23:46;100043.28;;;7.55;95.26
76070;BME280;64768;51.738;5.852;2022-11-18T07:26:15;100047.56;;;7.52;95.78
76070;BME280;64768;51.738;5.852;2022-11-18T07:28:43;100051.44;;;7.51;95.46
76070;BME280;64768;51.738;5.852;2022-11-18T07:31:15;100047.59;;;7.49;95.46
76070;BME280;64768;51.738;5.852;2022-11-18T07:33:45;100060.75;;;7.47;95.39
76070;BME280;64768;51.738;5.852;2022-11-18T07:36:17;100044.97;;;7.38;95.59
76070;BME280;64768;51.738;5.852;2022-11-18T07:38:46;100056.88;;;7.48;95.51
76070;BME280;64768;51.738;5.852;2022-11-18T07:41:16;100067.69;;;7.51;95.31
76070;BME280;64768;51.738;5.852;2022-11-18T07:43:45;100067.78;;;7.41;95.16
76070;BME280;64768;51.738;5.852;2022-11-18T07:46:19;100076.22;;;7.46;95.78
76070;BME280;64768;51.738;5.852;2022-11-18T07:48:49;100087.84;;;7.47;95.17
76070;BME280;64768;51.738;5.852;2022-11-18T07:51:20;100087.06;;;7.46;95.34
76070;BME280;64768;51.738;5.852;2022-11-18T07:53:49;100085.53;;;7.45;95.76
76070;BME280;64768;51.738;5.852;2022-11-18T07:56:18;100092.88;;;7.48;95.46
76070;BME280;64768;51.738;5.852;2022-11-18T07:58:47;100095.97;;;7.50;95.90
76070;BME280;64768;51.738;5.852;2022-11-18T08:01:19;100099.03;;;7.52;95.67
76070;BME280;64768;51.738;5.852;2022-11-18T08:03:48;100110.66;;;7.53;95.59
76070;BME280;64768;51.738;5.852;2022-11-18T08:06:18;100111.03;;;7.55;95.54
76070;BME280;64768;51.738;5.852;2022-11-18T08:08:46;100113.31;;;7.57;95.52
76070;BME280;64768;51.738;5.852;2022-11-18T08:11:17;100118.72;;;7.60;95.29
76070;BME280;64768;51.738;5.852;2022-11-18T08:13:45;100119.09;;;7.62;95.46
76070;BME280;64768;51.738;5.852;2022-11-18T08:16:18;100115.59;;;7.65;95.80
76070;BME280;64768;51.738;5.852;2022-11-18T08:18:50;100124.88;;;7.64;95.78
76070;BME280;64768;51.738;5.852;2022-11-18T08:21:21;100121.44;;;7.60;95.23
76070;BME280;64768;51.738;5.852;2022-11-18T08:23:51;100134.16;;;7.63;95.56
76070;BME280;64768;51.738;5.852;2022-11-18T08:26:22;100133.41;;;7.63;95.35
76070;BME280;64768;51.738;5.852;2022-11-18T08:28:51;100129.16;;;7.62;95.40
76070;BME280;64768;51.738;5.852;2022-11-18T08:31:24;100131.47;;;7.63;95.16
76070;BME280;64768;51.738;5.852;2022-11-18T08:33:56;100140.75;;;7.66;95.10
76070;BME280;64768;51.738;5.852;2022-11-18T08:36:27;100141.94;;;7.65;95.14
76070;BME280;64768;51.738;5.852;2022-11-18T08:38:57;100136.50;;;7.61;95.01
76070;BME280;64768;51.738;5.852;2022-11-18T08:41:30;100139.59;;;7.63;94.83
76070;BME280;64768;51.738;5.852;2022-11-18T08:43:59;100140.78;;;7.59;95.03
76070;BME280;64768;51.738;5.852;2022-11-18T08:46:30;100139.25;;;7.58;95.26
76070;BME280;64768;51.738;5.852;2022-11-18T08:48:59;100135.34;;;7.66;95.01
76070;BME280;64768;51.738;5.852;2022-11-18T08:51:28;100139.59;;;7.63;95.07
76070;BME280;64768;51.738;5.852;2022-11-18T08:53:56;100137.34;;;7.55;95.47
76070;BME280;64768;51.738;5.852;2022-11-18T08:56:25;100146.19;;;7.62;95.70
76070;BME280;64768;51.738;5.852;2022-11-18T08:58:54;100149.66;;;7.63;95.15
76070;BME280;64768;51.738;5.852;2022-11-18T09:01:23;100145.03;;;7.60;95.42
76070;BME280;64768;51.738;5.852;2022-11-18T09:03:56;100148.50;;;7.64;94.59
76070;BME280;64768;51.738;5.852;2022-11-18T09:06:30;100156.63;;;7.67;94.96
76070;BME280;64768;51.738;5.852;2022-11-18T09:08:59;100155.13;;;7.59;94.88
76070;BME280;64768;51.738;5.852;2022-11-18T09:11:28;100169.03;;;7.65;94.81
76070;BME280;64768;51.738;5.852;2022-11-18T09:13:58;100162.06;;;7.60;95.08
76070;BME280;64768;51.738;5.852;2022-11-18T09:16:28;100176.38;;;7.68;95.20
76070;BME280;64768;51.738;5.852;2022-11-18T09:19:07;100157.06;;;7.59;94.95
76070;BME280;64768;51.738;5.852;2022-11-18T09:21:50;100179.41;;;7.73;94.54
76070;BME280;64768;51.738;5.852;2022-11-18T09:24:31;100172.13;;;7.67;94.74
76070;BME280;64768;51.738;5.852;2022-11-18T09:27:20;100172.88;;;7.67;94.91
76070;BME280;64768;51.738;5.852;2022-11-18T09:30:33;100175.22;;;7.65;95.08
76070;BME280;64768;51.738;5.852;2022-11-18T09:33:35;100197.19;;;7.78;94.40
76070;BME280;64768;51.738;5.852;2022-11-18T09:36:19;100179.06;;;7.68;94.64
76070;BME280;64768;51.738;5.852;2022-11-18T09:39:05;100191.03;;;7.74;94.89
76070;BME280;64768;51.738;5.852;2022-11-18T09:41:52;100194.47;;;7.78;94.66
76070;BME280;64768;51.738;5.852;2022-11-18T09:44:51;100199.47;;;7.87;94.45
76070;BME280;64768;51.738;5.852;2022-11-18T09:47:26;100200.97;;;7.91;95.17
76070;BME280;64768;51.738;5.852;2022-11-18T09:49:58;100205.16;;;8.03;95.32
76070;BME280;64768;51.738;5.852;2022-11-18T09:52:36;100200.44;;;8.10;94.94
76070;BME280;64768;51.738;5.852;2022-11-18T09:55:10;100203.41;;;8.27;95.06
76070;BME280;64768;51.738;5.852;2022-11-18T09:57:45;100208.41;;;8.32;94.24
76070;BME280;64768;51.738;5.852;2022-11-18T10:00:21;100204.94;;;8.31;93.67
76070;BME280;64768;51.738;5.852;2022-11-18T10:03:00;100213.41;;;8.40;92.88
76070;BME280;64768;51.738;5.852;2022-11-18T10:05:37;100216.38;;;8.53;94.07
76070;BME280;64768;51.738;5.852;2022-11-18T10:08:58;100224.53;;;8.53;93.32
76070;BME280;64768;51.738;5.852;2022-11-18T10:15:15;100226.81;;;8.58;93.16
76070;BME280;64768;51.738;5.852;2022-11-18T10:18:10;100232.53;;;8.67;93.18
76070;BME280;64768;51.738;5.852;2022-11-18T10:20:55;100247.94;;;8.78;93.15
76070;BME280;64768;51.738;5.852;2022-11-18T10:30:25;100251.63;;;8.98;92.24
76070;BME280;64768;51.738;5.852;2022-11-18T10:33:33;100256.69;;;8.96;91.99
76070;BME280;64768;51.738;5.852;2022-11-18T10:39:54;100265.84;;;9.13;91.90
76070;BME280;64768;51.738;5.852;2022-11-18T10:42:59;100270.31;;;9.26;91.88
76070;BME280;64768;51.738;5.852;2022-11-18T10:45:47;100274.91;;;9.33;91.51
76070;BME280;64768;51.738;5.852;2022-11-18T10:55:05;100270.91;;;9.45;91.79
76070;BME280;64768;51.738;5.852;2022-11-18T10:57:35;100273.53;;;9.52;91.96
76070;BME280;64768;51.738;5.852;2022-11-18T11:00:41;100274.25;;;9.56;91.00
76070;BME280;64768;51.738;5.852;2022-11-18T11:03:32;100284.63;;;9.65;91.41
76070;BME280;64768;51.738;5.852;2022-11-18T11:06:30;100266.41;;;9.61;91.19
76070;BME280;64768;51.738;5.852;2022-11-18T11:09:05;100282.16;;;9.74;90.26
76070;BME280;64768;51.738;5.852;2022-11-18T11:11:35;100288.34;;;9.78;90.12
76070;BME280;64768;51.738;5.852;2022-11-18T11:14:20;100287.47;;;9.84;90.04
76070;BME280;64768;51.738;5.852;2022-11-18T11:17:01;100279.63;;;9.90;89.18
76070;BME280;64768;51.738;5.852;2022-11-18T11:19:39;100283.31;;;10.03;89.49
76070;BME280;64768;51.738;5.852;2022-11-18T11:22:10;100282.81;;;10.12;89.49
76070;BME280;64768;51.738;5.852;2022-11-18T11:24:39;100282.75;;;10.15;88.95
76070;BME280;64768;51.738;5.852;2022-11-18T11:27:22;100288.00;;;10.30;89.32
76070;BME280;64768;51.738;5.852;2022-11-18T11:30:06;100288.31;;;10.35;89.10
76070;BME280;64768;51.738;5.852;2022-11-18T11:35:33;100291.56;;;10.50;88.07
76070;BME280;64768;51.738;5.852;2022-11-18T11:38:11;100290.31;;;10.55;87.41
76070;BME280;64768;51.738;5.852;2022-11-18T11:40:53;100298.41;;;10.62;87.60
76070;BME280;64768;51.738;5.852;2022-11-18T11:43:33;100295.91;;;10.71;87.71
76070;BME280;64768;51.738;5.852;2022-11-18T11:46:17;100296.63;;;10.75;88.58
76070;BME280;64768;51.738;5.852;2022-11-18T11:49:26;100296.97;;;10.77;87.65
76070;BME280;64768;51.738;5.852;2022-11-18T11:52:12;100288.75;;;10.80;87.02
76070;BME280;64768;51.738;5.852;2022-11-18T11:54:46;100294.53;;;10.82;86.87
76070;BME280;64768;51.738;5.852;2022-11-18T11:57:26;100291.31;;;10.88;87.11
76070;BME280;64768;51.738;5.852;2022-11-18T12:00:02;100298.31;;;10.89;86.95
76070;BME280;64768;51.738;5.852;2022-11-18T12:02:42;100300.84;;;10.99;86.89
76070;BME280;64768;51.738;5.852;2022-11-18T12:05:21;100299.16;;;11.05;87.06
76070;BME280;64768;51.738;5.852;2022-11-18T12:07:54;100299.81;;;11.13;86.26
76070;BME280;64768;51.738;5.852;2022-11-18T12:10:31;100295.41;;;11.19;86.22
76070;BME280;64768;51.738;5.852;2022-11-18T12:13:11;100300.75;;;11.26;86.18
76070;BME280;64768;51.738;5.852;2022-11-18T12:16:00;100292.84;;;11.32;86.25
76070;BME280;64768;51.738;5.852;2022-11-18T12:18:36;100294.66;;;11.38;85.65
76070;BME280;64768;51.738;5.852;2022-11-18T12:24:30;100297.06;;;11.56;85.55
76070;BME280;64768;51.738;5.852;2022-11-18T12:27:02;100301.16;;;11.64;85.61
76070;BME280;64768;51.738;5.852;2022-11-18T12:29:37;100300.31;;;11.67;85.23
76070;BME280;64768;51.738;5.852;2022-11-18T12:32:26;100304.91;;;11.70;84.82
76070;BME280;64768;51.738;5.852;2022-11-18T12:35:24;100318.41;;;11.78;85.63
76070;BME280;64768;51.738;5.852;2022-11-18T12:38:03;100320.13;;;11.71;85.96
76070;BME280;64768;51.738;5.852;2022-11-18T12:40:38;100322.84;;;11.71;85.82
76070;BME280;64768;51.738;5.852;2022-11-18T12:55:15;100325.03;;;11.80;84.63
76070;BME280;64768;51.738;5.852;2022-11-18T12:57:45;100327.78;;;11.77;85.39
76070;BME280;64768;51.738;5.852;2022-11-18T13:00:17;100335.84;;;11.84;85.06
76070;BME280;64768;51.738;5.852;2022-11-18T13:02:50;100337.72;;;11.87;85.28
76070;BME280;64768;51.738;5.852;2022-11-18T13:05:22;100331.09;;;11.88;84.78
76070;BME280;64768;51.738;5.852;2022-11-18T13:07:55;100332.22;;;11.90;85.21
76070;BME280;64768;51.738;5.852;2022-11-18T13:10:44;100341.78;;;11.98;85.35
76070;BME280;64768;51.738;5.852;2022-11-18T13:13:27;100345.97;;;12.03;85.12
76070;BME280;64768;51.738;5.852;2022-11-18T13:16:02;100330.09;;;11.98;84.71
76070;BME280;64768;51.738;5.852;2022-11-18T13:18:49;100345.13;;;12.06;85.52
76070;BME280;64768;51.738;5.852;2022-11-18T13:21:28;100341.34;;;12.00;84.87
76070;BME280;64768;51.738;5.852;2022-11-18T13:24:11;100353.81;;;12.01;84.53
76070;BME280;64768;51.738;5.852;2022-11-18T13:26:46;100350.66;;;12.02;84.89
76070;BME280;64768;51.738;5.852;2022-11-18T13:29:33;100347.41;;;11.91;85.18
76070;BME280;64768;51.738;5.852;2022-11-18T13:32:18;100356.34;;;11.92;84.93
76070;BME280;64768;51.738;5.852;2022-11-18T13:34:50;100355.25;;;11.89;84.71
76070;BME280;64768;51.738;5.852;2022-11-18T13:37:31;100363.06;;;11.87;85.29
76070;BME280;64768;51.738;5.852;2022-11-18T13:40:43;100363.13;;;11.84;85.26
76070;BME280;64768;51.738;5.852;2022-11-18T13:57:35;100360.59;;;11.73;86.92
76070;BME280;64768;51.738;5.852;2022-11-18T14:00:52;100363.38;;;11.69;86.35
76070;BME280;64768;51.738;5.852;2022-11-18T14:54:37;100372.69;;;10.62;89.52
76070;BME280;64768;51.738;5.852;2022-11-18T14:57:34;100376.25;;;10.59;89.68
76070;BME280;64768;51.738;5.852;2022-11-18T15:03:35;100394.25;;;10.49;90.98
76070;BME280;64768;51.738;5.852;2022-11-18T15:06:13;100396.72;;;10.40;91.28
76070;BME280;64768;51.738;5.852;2022-11-18T15:09:08;100403.09;;;10.30;91.03
76070;BME280;64768;51.738;5.852;2022-11-18T15:31:26;100414.81;;;9.93;92.61
76070;BME280;64768;51.738;5.852;2022-11-18T15:33:57;100420.25;;;9.93;92.42
76070;BME280;64768;51.738;5.852;2022-11-18T15:36:32;100423.34;;;9.95;92.99
76070;BME280;64768;51.738;5.852;2022-11-18T15:39:02;100426.81;;;9.96;92.71
76070;BME280;64768;51.738;5.852;2022-11-18T15:41:36;100428.78;;;9.91;92.42
76070;BME280;64768;51.738;5.852;2022-11-18T15:44:10;100433.81;;;9.97;92.65
76070;BME280;64768;51.738;5.852;2022-11-18T15:46:44;100440.84;;;9.94;93.05
76070;BME280;64768;51.738;5.852;2022-11-18T15:49:14;100435.06;;;9.88;92.82
76070;BME280;64768;51.738;5.852;2022-11-18T15:51:43;100440.09;;;9.90;92.30
76070;BME280;64768;51.738;5.852;2022-11-18T15:54:12;100444.75;;;9.89;92.62
76070;BME280;64768;51.738;5.852;2022-11-18T15:56:41;100445.16;;;9.88;93.07
76070;BME280;64768;51.738;5.852;2022-11-18T15:59:11;100451.78;;;9.87;93.31
76070;BME280;64768;51.738;5.852;2022-11-18T16:01:47;100441.81;;;9.77;92.97
76070;BME280;64768;51.738;5.852;2022-11-18T16:04:17;100444.47;;;9.80;93.04
76070;BME280;64768;51.738;5.852;2022-11-18T16:06:46;100453.78;;;9.83;93.15
76070;BME280;64768;51.738;5.852;2022-11-18T16:09:24;100461.56;;;9.81;93.22
76070;BME280;64768;51.738;5.852;2022-11-18T16:12:15;100449.19;;;9.76;92.96
76070;BME280;64768;51.738;5.852;2022-11-18T16:14:56;100461.19;;;9.79;93.49
76070;BME280;64768;51.738;5.852;2022-11-18T16:17:39;100461.22;;;9.75;93.00
76070;BME280;64768;51.738;5.852;2022-11-18T16:20:10;100463.16;;;9.75;93.07
76070;BME280;64768;51.738;5.852;2022-11-18T16:22:39;100450.06;;;9.66;93.17
76070;BME280;64768;51.738;5.852;2022-11-18T16:25:08;100459.34;;;9.69;93.03
76070;BME280;64768;51.738;5.852;2022-11-18T16:27:38;100468.28;;;9.69;93.10
76070;BME280;64768;51.738;5.852;2022-11-18T16:30:12;100457.91;;;9.60;93.54
76070;BME280;64768;51.738;5.852;2022-11-18T16:32:56;100467.19;;;9.63;93.91
76070;BME280;64768;51.738;5.852;2022-11-18T16:35:25;100468.78;;;9.60;93.74
76070;BME280;64768;51.738;5.852;2022-11-18T16:37:54;100459.53;;;9.51;93.82
76070;BME280;64768;51.738;5.852;2022-11-18T16:40:31;100468.81;;;9.53;93.89
76070;BME280;64768;51.738;5.852;2022-11-18T16:50:17;100468.94;;;9.39;93.57
76070;BME280;64768;51.738;5.852;2022-11-18T16:52:46;100482.91;;;9.45;93.74
76070;BME280;64768;51.738;5.852;2022-11-18T16:55:18;100482.91;;;9.41;93.71
76070;BME280;64768;51.738;5.852;2022-11-18T16:57:47;100477.53;;;9.34;93.63
76070;BME280;64768;51.738;5.852;2022-11-18T17:00:21;100479.44;;;9.37;93.99
76070;BME280;64768;51.738;5.852;2022-11-18T17:02:49;100491.06;;;9.41;93.94
76070;BME280;64768;51.738;5.852;2022-11-18T17:05:24;100491.13;;;9.34;93.85
76070;BME280;64768;51.738;5.852;2022-11-18T17:07:53;100493.03;;;9.37;93.73
76070;BME280;64768;51.738;5.852;2022-11-18T17:10:22;100498.47;;;9.37;94.05
76070;BME280;64768;51.738;5.852;2022-11-18T17:12:50;100497.72;;;9.37;94.10
76070;BME280;64768;51.738;5.852;2022-11-18T17:15:30;100496.56;;;9.34;93.94
76070;BME280;64768;51.738;5.852;2022-11-18T17:17:59;100497.41;;;9.27;94.23
76070;BME280;64768;51.738;5.852;2022-11-18T17:20:49;100509.38;;;9.33;94.35
76070;BME280;64768;51.738;5.852;2022-11-18T17:26:28;100497.44;;;9.20;94.07
76070;BME280;64768;51.738;5.852;2022-11-18T17:29:05;100493.22;;;9.16;94.08